createdAt,value
2018-08-25T00:01:22.821Z,46.10
2018-08-25T00:03:50.301Z,46.20
2018-08-25T00:06:17.781Z,46.00
2018-08-25T00:08:45.250Z,46.10
2018-08-25T00:11:12.712Z,46.00
2018-08-25T00:13:40.184Z,46.00
2018-08-25T00:16:07.641Z,46.00
2018-08-25T00:18:35.114Z,46.00
2018-08-25T00:21:02.786Z,46.00
2018-08-25T00:23:30.253Z,46.00
2018-08-25T00:25:57.700Z,46.10
2018-08-25T00:28:25.172Z,46.00
2018-08-25T00:30:58.116Z,45.90
2018-08-25T00:33:25.601Z,45.90
2018-08-25T00:35:53.070Z,45.90
2018-08-25T00:38:20.545Z,46.20
2018-08-25T00:40:48.000Z,46.00
2018-08-25T00:43:15.521Z,45.90
2018-08-25T00:45:42.984Z,46.00
2018-08-25T00:48:10.441Z,45.90
2018-08-25T00:50:37.888Z,45.90
2018-08-25T00:53:05.362Z,46.00
2018-08-25T00:55:32.836Z,45.90
2018-08-25T00:58:00.292Z,45.90
2018-08-25T01:00:27.780Z,46.00
2018-08-25T01:02:55.236Z,45.90
2018-08-25T01:05:22.714Z,46.30
2018-08-25T01:07:50.181Z,45.90
2018-08-25T01:10:17.648Z,45.80
2018-08-25T01:12:45.121Z,45.90
2018-08-25T01:15:12.583Z,45.90
2018-08-25T01:17:40.071Z,45.90
2018-08-25T01:20:07.601Z,45.90
2018-08-25T01:22:35.253Z,45.80
2018-08-25T01:25:02.909Z,45.90
2018-08-25T01:27:30.390Z,45.90
2018-08-25T01:29:57.848Z,45.90
2018-08-25T01:32:25.304Z,45.80
2018-08-25T01:34:52.789Z,45.80
2018-08-25T01:37:20.281Z,46.20
2018-08-25T01:39:47.952Z,45.80
2018-08-25T01:42:20.405Z,45.80
2018-08-25T01:44:48.936Z,45.80
2018-08-25T01:47:16.397Z,45.70
2018-08-25T01:49:43.873Z,45.70
2018-08-25T01:52:11.337Z,45.70
2018-08-25T01:54:38.828Z,45.70
2018-08-25T01:57:06.308Z,45.70
2018-08-25T01:59:33.781Z,45.70
2018-08-25T02:02:01.353Z,45.70
2018-08-25T02:04:28.852Z,45.70
2018-08-25T02:06:56.352Z,45.70
2018-08-25T02:09:23.808Z,45.70
2018-08-25T02:11:51.272Z,45.70
2018-08-25T02:14:18.732Z,45.70
2018-08-25T02:16:46.196Z,45.70
2018-08-25T02:19:13.662Z,45.70
2018-08-25T02:21:41.140Z,45.70
2018-08-25T02:24:08.596Z,45.60
2018-08-25T02:26:36.056Z,45.60
2018-08-25T02:29:03.532Z,45.60
2018-08-25T02:31:30.993Z,45.50
2018-08-25T02:33:58.462Z,45.60
2018-08-25T02:36:25.929Z,45.60
2018-08-25T02:38:53.506Z,45.60
2018-08-25T02:41:21.014Z,45.60
2018-08-25T02:43:48.485Z,45.60
2018-08-25T02:46:15.945Z,45.60
2018-08-25T02:48:43.466Z,46.20
2018-08-25T02:51:10.925Z,45.50
2018-08-25T02:53:38.559Z,46.20
2018-08-25T02:56:06.036Z,45.60
2018-08-25T02:58:33.518Z,45.50
2018-08-25T03:01:00.988Z,45.60
2018-08-25T03:03:28.612Z,45.50
2018-08-25T03:05:56.064Z,45.50
2018-08-25T03:08:23.760Z,45.60
2018-08-25T03:10:51.432Z,46.20
2018-08-25T03:13:18.888Z,45.60
2018-08-25T03:15:46.356Z,45.50
2018-08-25T03:18:13.824Z,45.50
2018-08-25T03:20:41.283Z,45.50
2018-08-25T03:23:08.745Z,45.50
2018-08-25T03:25:36.216Z,45.60
2018-08-25T03:28:03.676Z,45.50
2018-08-25T03:30:31.136Z,45.50
2018-08-25T03:32:58.603Z,45.40
2018-08-25T03:35:26.076Z,45.50
2018-08-25T03:37:53.528Z,45.60
2018-08-25T03:40:21.011Z,45.40
2018-08-25T03:42:48.660Z,45.40
2018-08-25T03:45:16.112Z,45.40
2018-08-25T03:47:43.696Z,45.50
2018-08-25T03:50:11.165Z,45.30
2018-08-25T03:52:38.659Z,45.30
2018-08-25T03:55:06.181Z,45.40
2018-08-25T03:57:33.664Z,45.40
2018-08-25T04:00:01.372Z,46.00
2018-08-25T04:02:28.861Z,45.40
2018-08-25T04:04:56.349Z,45.30
2018-08-25T04:07:23.812Z,45.30
2018-08-25T04:09:51.296Z,45.30
2018-08-25T04:12:18.766Z,45.40
2018-08-25T04:14:46.241Z,45.30
2018-08-25T04:17:13.725Z,45.30
2018-08-25T04:19:41.189Z,45.30
2018-08-25T04:22:08.661Z,45.30
2018-08-25T04:24:36.270Z,45.30
2018-08-25T04:27:03.846Z,45.20
2018-08-25T04:29:31.383Z,45.30
2018-08-25T04:31:58.864Z,45.20
2018-08-25T04:34:26.332Z,45.30
2018-08-25T04:36:53.798Z,45.30
2018-08-25T04:39:21.320Z,45.20
2018-08-25T04:41:48.797Z,45.30
2018-08-25T04:44:16.275Z,45.20
2018-08-25T04:46:43.736Z,45.30
2018-08-25T04:49:11.242Z,45.30
2018-08-25T04:51:38.725Z,45.30
2018-08-25T04:54:06.221Z,45.40
2018-08-25T04:56:33.697Z,45.40
2018-08-25T04:59:01.185Z,45.50
2018-08-25T05:01:28.669Z,45.50
2018-08-25T05:03:56.149Z,45.50
2018-08-25T05:06:23.629Z,45.60
2018-08-25T05:08:51.117Z,45.60
2018-08-25T05:11:18.609Z,45.60
2018-08-25T05:13:46.088Z,45.70
2018-08-25T05:16:13.561Z,45.60
2018-08-25T05:18:41.054Z,45.70
2018-08-25T05:21:08.620Z,45.60
2018-08-25T05:23:36.089Z,45.70
2018-08-25T05:26:03.620Z,45.80
2018-08-25T05:28:31.087Z,45.80
2018-08-25T05:30:58.577Z,45.90
2018-08-25T05:33:26.052Z,45.80
2018-08-25T05:35:53.555Z,45.90
2018-08-25T05:38:21.021Z,45.90
2018-08-25T05:40:48.506Z,46.00
2018-08-25T05:43:16.002Z,46.00
2018-08-25T05:45:43.605Z,46.00
2018-08-25T05:48:11.105Z,46.00
2018-08-25T05:50:38.588Z,46.00
2018-08-25T05:53:06.626Z,46.10
2018-08-25T05:55:34.100Z,46.20
2018-08-25T05:58:01.590Z,46.10
2018-08-25T06:00:29.083Z,46.10
2018-08-25T06:02:56.609Z,46.30
2018-08-25T06:05:24.468Z,46.30
2018-08-25T06:07:52.466Z,46.30
2018-08-25T06:10:19.969Z,46.30
2018-08-25T06:12:47.526Z,46.50
2018-08-25T06:15:15.080Z,41.30
2018-08-25T06:17:43.261Z,40.10
2018-08-25T06:20:10.713Z,40.00
2018-08-25T06:22:38.317Z,40.50
2018-08-25T06:25:06.708Z,40.50
2018-08-25T06:27:34.284Z,40.60
2018-08-25T06:30:02.109Z,40.80
2018-08-25T06:32:29.740Z,40.80
2018-08-25T06:34:57.212Z,41.60
2018-08-25T06:37:24.692Z,41.20
2018-08-25T06:39:52.368Z,41.40
2018-08-25T06:42:19.892Z,41.30
2018-08-25T06:44:47.357Z,41.20
2018-08-25T06:47:15.484Z,41.40
2018-08-25T06:49:43.036Z,42.50
2018-08-25T06:52:10.537Z,41.80
2018-08-25T06:54:38.084Z,41.90
2018-08-25T06:57:06.809Z,42.30
2018-08-25T06:59:34.367Z,41.80
2018-08-25T07:02:01.841Z,41.80
2018-08-25T07:04:29.305Z,42.30
2018-08-25T07:06:56.802Z,42.20
2018-08-25T07:09:24.273Z,42.50
2018-08-25T07:11:51.749Z,42.40
2018-08-25T07:14:19.282Z,42.30
2018-08-25T07:16:46.744Z,42.40
2018-08-25T07:19:14.360Z,43.20
2018-08-25T07:21:41.847Z,42.60
2018-08-25T07:24:09.317Z,42.40
2018-08-25T07:26:36.813Z,42.40
2018-08-25T07:29:04.281Z,42.40
2018-08-25T07:31:31.760Z,42.30
2018-08-25T07:33:59.485Z,42.30
2018-08-25T07:36:27.271Z,42.40
2018-08-25T07:38:54.791Z,42.20
2018-08-25T07:41:22.252Z,42.20
2018-08-25T07:43:50.812Z,42.10
2018-08-25T07:46:18.907Z,42.20
2018-08-25T07:48:46.681Z,42.40
2018-08-25T07:51:14.191Z,42.40
2018-08-25T07:53:41.885Z,42.40
2018-08-25T07:56:09.678Z,42.60
2018-08-25T07:58:37.200Z,42.50
2018-08-25T08:01:04.992Z,42.30
2018-08-25T08:03:32.626Z,42.40
2018-08-25T08:06:00.136Z,42.20
2018-08-25T08:08:27.997Z,42.00
2018-08-25T08:10:55.515Z,42.00
2018-08-25T08:13:23.335Z,41.70
2018-08-25T08:15:50.798Z,41.70
2018-08-25T08:18:18.947Z,41.70
2018-08-25T08:20:46.701Z,41.20
2018-08-25T08:23:14.425Z,40.80
2018-08-25T08:25:42.132Z,40.90
2018-08-25T08:28:09.824Z,41.40
2018-08-25T08:30:37.537Z,41.60
2018-08-25T08:33:05.344Z,41.10
2018-08-25T08:35:32.773Z,41.20
2018-08-25T08:38:00.458Z,41.20
2018-08-25T08:40:28.242Z,41.10
2018-08-25T08:42:55.917Z,41.10
2018-08-25T08:45:23.684Z,40.80
2018-08-25T08:47:51.396Z,41.00
2018-08-25T08:50:19.150Z,40.90
2018-08-25T08:52:47.147Z,41.10
2018-08-25T08:55:14.790Z,41.30
2018-08-25T08:57:42.337Z,41.90
2018-08-25T09:00:09.926Z,42.00
2018-08-25T09:02:38.482Z,41.70
2018-08-25T09:05:06.234Z,40.80
2018-08-25T09:07:33.857Z,40.30
2018-08-25T09:10:01.599Z,40.70
2018-08-25T09:12:29.264Z,40.80
2018-08-25T09:14:56.825Z,41.20
2018-08-25T09:17:24.924Z,41.40
2018-08-25T09:19:52.476Z,42.10
2018-08-25T09:22:20.155Z,42.30
2018-08-25T09:24:48.014Z,42.40
2018-08-25T09:27:16.469Z,42.70
2018-08-25T09:29:44.174Z,43.00
2018-08-25T09:32:12.694Z,43.70
2018-08-25T09:34:40.258Z,44.10
2018-08-25T09:37:07.975Z,44.50
2018-08-25T09:39:35.724Z,44.60
2018-08-25T09:42:03.573Z,44.40
2018-08-25T09:44:31.442Z,44.80
2018-08-25T09:46:59.252Z,45.60
2018-08-25T09:49:26.821Z,45.60
2018-08-25T09:51:54.733Z,45.60
2018-08-25T09:54:22.264Z,45.90
2018-08-25T09:56:50.086Z,46.40
2018-08-25T09:59:17.709Z,47.00
2018-08-25T10:01:50.864Z,48.10
2018-08-25T10:04:18.642Z,47.00
2018-08-25T10:06:46.289Z,47.00
2018-08-25T10:09:14.224Z,47.00
2018-08-25T10:11:42.396Z,46.70
2018-08-25T10:14:10.064Z,46.50
2018-08-25T10:16:37.856Z,46.20
2018-08-25T10:19:05.652Z,46.10
2018-08-25T10:21:33.231Z,45.80
2018-08-25T10:24:00.975Z,45.50
2018-08-25T10:26:28.493Z,45.40
2018-08-25T10:28:56.835Z,45.30
2018-08-25T10:31:24.799Z,45.20
2018-08-25T10:33:52.449Z,45.90
2018-08-25T10:36:20.889Z,45.10
2018-08-25T10:38:48.525Z,45.00
2018-08-25T10:41:16.689Z,45.10
2018-08-25T10:43:44.348Z,45.10
2018-08-25T10:46:11.857Z,45.10
2018-08-25T10:48:39.488Z,45.10
2018-08-25T10:51:07.004Z,45.10
2018-08-25T10:53:34.703Z,45.20
2018-08-25T10:56:03.792Z,45.20
2018-08-25T10:58:31.336Z,45.20
2018-08-25T11:00:59.100Z,45.10
2018-08-25T11:03:26.472Z,45.20
2018-08-25T11:05:53.965Z,45.00
2018-08-25T11:08:21.600Z,45.20
2018-08-25T11:10:49.385Z,45.20
2018-08-25T11:13:17.052Z,45.30
2018-08-25T11:15:44.584Z,45.20
2018-08-25T11:18:12.221Z,45.20
2018-08-25T11:20:40.078Z,45.30
2018-08-25T11:23:07.628Z,45.30
2018-08-25T11:25:35.380Z,45.30
2018-08-25T11:28:03.037Z,45.20
2018-08-25T11:30:30.629Z,45.10
2018-08-25T11:32:58.252Z,45.20
2018-08-25T11:35:25.829Z,45.20
2018-08-25T11:37:53.549Z,45.10
2018-08-25T11:40:21.102Z,45.10
2018-08-25T11:42:48.970Z,45.10
2018-08-25T11:45:16.759Z,45.00
2018-08-25T11:47:44.494Z,44.90
2018-08-25T11:50:12.064Z,44.90
2018-08-25T11:52:39.771Z,44.80
2018-08-25T11:55:07.470Z,44.60
2018-08-25T11:57:35.136Z,45.30
2018-08-25T12:00:02.916Z,44.60
2018-08-25T12:02:30.585Z,44.60
2018-08-25T12:04:58.196Z,44.60
2018-08-25T12:07:26.016Z,44.50
2018-08-25T12:09:53.613Z,44.60
2018-08-25T12:12:21.172Z,44.40
2018-08-25T12:14:48.786Z,44.50
2018-08-25T12:17:16.437Z,44.20
2018-08-25T12:19:43.993Z,44.40
2018-08-25T12:22:11.621Z,44.20
2018-08-25T12:24:39.276Z,44.30
2018-08-25T12:27:06.872Z,44.20
2018-08-25T12:29:34.729Z,44.10
2018-08-25T12:32:02.337Z,44.10
2018-08-25T12:34:29.861Z,44.00
2018-08-25T12:36:57.711Z,43.90
2018-08-25T12:39:25.318Z,43.90
2018-08-25T12:41:53.181Z,43.80
2018-08-25T12:44:20.700Z,44.00
2018-08-25T12:46:48.312Z,44.50
2018-08-25T12:49:16.720Z,43.70
2018-08-25T12:51:44.278Z,43.80
2018-08-25T12:54:11.800Z,44.30
2018-08-25T12:56:39.393Z,43.80
2018-08-25T12:59:07.111Z,43.60
2018-08-25T13:01:34.709Z,43.70
2018-08-25T13:04:02.261Z,43.70
2018-08-25T13:06:29.920Z,43.60
2018-08-25T13:08:57.544Z,43.70
2018-08-25T13:11:25.232Z,43.50
2018-08-25T13:13:52.829Z,43.50
2018-08-25T13:16:20.393Z,43.50
2018-08-25T13:18:47.910Z,43.40
2018-08-25T13:21:15.368Z,43.10
2018-08-25T13:23:42.867Z,43.70
2018-08-25T13:26:10.363Z,44.00
2018-08-25T13:28:37.889Z,43.20
2018-08-25T13:31:05.497Z,43.20
2018-08-25T13:33:33.888Z,44.00
2018-08-25T13:36:01.363Z,44.00
2018-08-25T13:38:29.068Z,43.80
2018-08-25T13:40:56.572Z,43.40
2018-08-25T13:43:24.074Z,43.30
2018-08-25T13:45:51.573Z,43.90
2018-08-25T13:48:20.114Z,43.30
2018-08-25T13:50:47.608Z,43.80
2018-08-25T13:53:15.100Z,44.30
2018-08-25T13:55:42.589Z,43.90
2018-08-25T13:58:10.081Z,43.30
2018-08-25T14:00:37.549Z,43.40
2018-08-25T14:03:05.241Z,43.20
2018-08-25T14:05:33.056Z,43.20
2018-08-25T14:08:00.584Z,43.90
2018-08-25T14:10:28.196Z,43.30
2018-08-25T14:12:55.880Z,43.40
2018-08-25T14:15:23.502Z,43.90
2018-08-25T14:17:51.078Z,43.70
2018-08-25T14:20:18.582Z,43.50
2018-08-25T14:22:46.061Z,42.40
2018-08-25T14:25:13.694Z,42.20
2018-08-25T14:27:41.475Z,43.20
2018-08-25T14:30:08.953Z,42.40
2018-08-25T14:32:36.452Z,43.20
2018-08-25T14:35:04.027Z,42.70
2018-08-25T14:37:31.520Z,41.80
2018-08-25T14:39:58.996Z,43.30
2018-08-25T14:42:26.484Z,42.00
2018-08-25T14:44:54.008Z,43.00
2018-08-25T14:47:21.830Z,42.10
2018-08-25T14:49:49.252Z,43.20
2018-08-25T14:52:16.733Z,43.20
2018-08-25T14:54:44.200Z,42.80
2018-08-25T14:57:11.697Z,42.70
2018-08-25T14:59:39.168Z,42.80
2018-08-25T15:02:06.873Z,41.10
2018-08-25T15:04:34.440Z,41.20
2018-08-25T15:07:02.637Z,41.40
2018-08-25T15:09:30.478Z,41.80
2018-08-25T15:11:58.048Z,42.30
2018-08-25T15:14:25.601Z,42.40
2018-08-25T15:16:53.197Z,42.60
2018-08-25T15:19:20.736Z,42.50
2018-08-25T15:21:48.208Z,42.40
2018-08-25T15:24:15.913Z,41.80
2018-08-25T15:26:43.464Z,42.40
2018-08-25T15:29:10.949Z,42.30
2018-08-25T15:31:38.417Z,42.30
2018-08-25T15:34:06.686Z,42.30
2018-08-25T15:36:34.353Z,42.20
2018-08-25T15:39:01.893Z,42.20
2018-08-25T15:41:29.357Z,42.20
2018-08-25T15:43:56.840Z,42.20
2018-08-25T15:46:24.315Z,42.30
2018-08-25T15:48:51.825Z,42.40
2018-08-25T15:51:19.429Z,42.40
2018-08-25T15:53:47.021Z,43.00
2018-08-25T15:56:14.542Z,46.10
2018-08-25T15:58:42.030Z,47.00
2018-08-25T16:01:09.533Z,47.20
2018-08-25T16:03:37.198Z,47.40
2018-08-25T16:06:04.748Z,47.40
2018-08-25T16:08:32.183Z,48.70
2018-08-25T16:10:59.668Z,48.70
2018-08-25T16:13:27.419Z,48.80
2018-08-25T16:15:54.893Z,49.20
2018-08-25T16:18:22.529Z,49.00
2018-08-25T16:20:50.016Z,48.80
2018-08-25T16:23:17.505Z,48.20
2018-08-25T16:25:44.987Z,48.50
2018-08-25T16:28:12.473Z,48.80
2018-08-25T16:30:39.964Z,49.30
2018-08-25T16:33:07.963Z,49.60
2018-08-25T16:35:35.501Z,49.30
2018-08-25T16:38:02.982Z,48.80
2018-08-25T16:40:30.471Z,48.60
2018-08-25T16:42:57.959Z,48.70
2018-08-25T16:45:25.497Z,49.00
2018-08-25T16:47:53.041Z,49.30
2018-08-25T16:50:20.679Z,50.00
2018-08-25T16:52:48.352Z,50.60
2018-08-25T16:55:15.992Z,50.90
2018-08-25T16:57:43.576Z,50.90
2018-08-25T17:00:11.100Z,51.40
2018-08-25T17:02:38.604Z,51.30
2018-08-25T17:05:06.087Z,51.40
2018-08-25T17:07:33.552Z,50.90
2018-08-25T17:10:01.080Z,51.70
2018-08-25T17:12:28.560Z,51.40
2018-08-25T17:14:56.225Z,52.90
2018-08-25T17:17:23.717Z,52.30
2018-08-25T17:19:51.212Z,53.30
2018-08-25T17:22:18.853Z,53.40
2018-08-25T17:24:46.389Z,53.90
2018-08-25T17:27:13.867Z,54.10
2018-08-25T17:29:41.362Z,53.30
2018-08-25T17:32:08.887Z,53.60
2018-08-25T17:34:36.406Z,53.70
2018-08-25T17:37:03.944Z,54.00
2018-08-25T17:39:31.656Z,54.10
2018-08-25T17:41:59.127Z,54.10
2018-08-25T17:44:26.632Z,53.70
2018-08-25T17:46:54.110Z,52.70
2018-08-25T17:49:21.663Z,51.80
2018-08-25T17:51:49.214Z,51.10
2018-08-25T17:54:17.206Z,50.90
2018-08-25T17:56:44.712Z,50.80
2018-08-25T17:59:12.186Z,50.40
2018-08-25T18:01:39.789Z,50.10
2018-08-25T18:04:07.277Z,49.90
2018-08-25T18:06:34.860Z,49.70
2018-08-25T18:09:02.657Z,49.40
2018-08-25T18:11:30.629Z,49.30
2018-08-25T18:13:58.118Z,49.10
2018-08-25T18:16:25.703Z,49.00
2018-08-25T18:18:53.333Z,49.00
2018-08-25T18:21:20.822Z,48.80
2018-08-25T18:23:48.350Z,48.70
2018-08-25T18:26:15.831Z,48.50
2018-08-25T18:28:43.340Z,48.50
2018-08-25T18:31:10.821Z,48.30
2018-08-25T18:33:38.299Z,48.30
2018-08-25T18:36:05.804Z,48.30
2018-08-25T18:38:33.300Z,48.30
2018-08-25T18:41:00.964Z,48.20
2018-08-25T18:43:28.704Z,48.10
2018-08-25T18:45:56.224Z,48.00
2018-08-25T18:48:23.891Z,47.90
2018-08-25T18:50:51.421Z,48.00
2018-08-25T18:53:18.981Z,47.70
2018-08-25T18:55:46.612Z,47.80
2018-08-25T18:58:14.532Z,47.70
2018-08-25T19:00:42.165Z,47.70
2018-08-25T19:03:09.826Z,47.70
2018-08-25T19:05:37.344Z,47.60
2018-08-25T19:08:04.812Z,47.60
2018-08-25T19:10:32.622Z,47.50
2018-08-25T19:13:00.136Z,47.50
2018-08-25T19:15:27.836Z,47.40
2018-08-25T19:17:55.319Z,47.40
2018-08-25T19:20:22.880Z,47.40
2018-08-25T19:22:50.414Z,47.30
2018-08-25T19:25:18.084Z,47.30
2018-08-25T19:27:45.580Z,47.30
2018-08-25T19:30:13.064Z,47.30
2018-08-25T19:32:40.914Z,47.20
2018-08-25T19:35:09.668Z,47.10
2018-08-25T19:37:37.174Z,47.10
2018-08-25T19:40:04.651Z,46.80
2018-08-25T19:42:32.328Z,47.10
2018-08-25T19:45:00.233Z,47.00
2018-08-25T19:47:27.717Z,47.00
2018-08-25T19:49:55.197Z,47.00
2018-08-25T19:52:22.859Z,46.90
2018-08-25T19:54:50.344Z,47.00
2018-08-25T19:57:17.817Z,46.90
2018-08-25T19:59:45.305Z,47.50
2018-08-25T20:02:12.817Z,46.80
2018-08-25T20:04:40.396Z,46.80
2018-08-25T20:07:07.883Z,46.80
2018-08-25T20:09:35.420Z,46.80
2018-08-25T20:12:03.019Z,46.70
2018-08-25T20:14:30.556Z,46.80
2018-08-25T20:16:58.155Z,46.80
2018-08-25T20:19:25.722Z,46.80
2018-08-25T20:21:53.380Z,46.80
2018-08-25T20:24:20.976Z,46.80
2018-08-25T20:26:48.547Z,46.80
2018-08-25T20:29:16.036Z,46.70
2018-08-25T20:31:43.605Z,46.70
2018-08-25T20:34:11.182Z,46.70
2018-08-25T20:36:38.720Z,46.70
2018-08-25T20:39:06.627Z,46.70
2018-08-25T20:41:34.158Z,46.70
2018-08-25T20:44:01.617Z,46.70
2018-08-25T20:46:29.089Z,46.70
2018-08-25T20:48:56.714Z,46.70
2018-08-25T20:51:24.233Z,46.70
2018-08-25T20:53:51.694Z,46.60
2018-08-25T20:56:19.168Z,46.60
2018-08-25T20:58:46.665Z,46.60
2018-08-25T21:01:14.156Z,46.60
2018-08-25T21:03:41.628Z,46.60
2018-08-25T21:06:09.128Z,46.50
2018-08-25T21:08:36.609Z,46.50
2018-08-25T21:11:04.083Z,46.50
2018-08-25T21:13:31.557Z,46.50
2018-08-25T21:15:59.071Z,46.50
2018-08-25T21:18:26.644Z,46.50
2018-08-25T21:20:54.112Z,46.50
2018-08-25T21:23:21.568Z,46.50
2018-08-25T21:25:49.032Z,46.50
2018-08-25T21:28:16.510Z,46.50
2018-08-25T21:30:44.121Z,46.50
2018-08-25T21:33:11.649Z,46.50
2018-08-25T21:35:39.256Z,46.40
2018-08-25T21:38:06.720Z,46.50
2018-08-25T21:40:34.180Z,46.40
2018-08-25T21:43:01.647Z,46.40
2018-08-25T21:45:29.160Z,46.40
2018-08-25T21:47:56.632Z,46.40
2018-08-25T21:50:24.100Z,46.40
2018-08-25T21:52:51.615Z,46.40
2018-08-25T21:55:19.091Z,46.40
2018-08-25T21:57:46.565Z,46.40
2018-08-25T22:00:14.028Z,46.40
2018-08-25T22:02:41.508Z,46.40
2018-08-25T22:05:08.965Z,46.40
2018-08-25T22:07:36.568Z,46.30
2018-08-25T22:10:04.039Z,46.30
2018-08-25T22:12:31.513Z,46.30
2018-08-25T22:14:58.990Z,46.30
2018-08-25T22:17:26.453Z,46.20
2018-08-25T22:19:53.916Z,46.20
2018-08-25T22:22:21.409Z,46.20
2018-08-25T22:24:48.888Z,46.20
2018-08-25T22:27:16.392Z,46.20
2018-08-25T22:29:43.856Z,46.10
2018-08-25T22:32:11.333Z,46.20
2018-08-25T22:34:38.821Z,46.20
2018-08-25T22:37:06.312Z,46.10
2018-08-25T22:39:33.808Z,46.10
2018-08-25T22:42:01.300Z,46.10
2018-08-25T22:44:28.784Z,46.10
2018-08-25T22:46:56.265Z,46.00
2018-08-25T22:49:23.901Z,46.10
2018-08-25T22:51:51.410Z,46.00
2018-08-25T22:54:18.872Z,46.00
2018-08-25T22:56:46.377Z,46.00
2018-08-25T22:59:13.836Z,46.00
2018-08-25T23:01:41.309Z,46.00
2018-08-25T23:04:08.781Z,46.00
2018-08-25T23:06:36.244Z,46.00
2018-08-25T23:09:05.364Z,46.00
2018-08-25T23:11:32.829Z,45.90
2018-08-25T23:14:00.289Z,45.90
2018-08-25T23:16:27.945Z,45.90
2018-08-25T23:18:55.401Z,45.90
2018-08-25T23:21:22.857Z,45.90
2018-08-25T23:23:50.389Z,45.90
2018-08-25T23:26:17.869Z,45.90
2018-08-25T23:28:45.341Z,45.90
2018-08-25T23:31:12.795Z,45.80
2018-08-25T23:33:40.332Z,45.80
2018-08-25T23:36:07.804Z,45.80
2018-08-25T23:38:35.265Z,45.80
2018-08-25T23:41:02.723Z,45.80
2018-08-25T23:43:30.185Z,45.80
2018-08-25T23:45:57.641Z,45.80
2018-08-25T23:48:25.141Z,45.80
2018-08-25T23:50:52.595Z,45.80
2018-08-25T23:53:20.057Z,45.80
2018-08-25T23:55:47.573Z,45.80
2018-08-25T23:58:15.025Z,45.70
